Time;durP1;ratioP1;P1;durP2;ratioP2;P2;SDS_P1;SDS_P2;PMS_P1;PMS_P2;Temp;Humidity;BMP_temperature;BMP_pressure;BME280_temperature;BME280_humidity;BME280_pressure;Samples;Min_cycle;Max_cycle;Signal;HPM_P1;HPM_P2
2022/06/23 00:00:17;;;;;;;8.43;2.63;;;17.60;99.90;;;;;;5039937;28;20040;-68
2022/06/23 00:02:42;;;;;;;5.00;2.15;;;17.60;99.90;;;;;;5045260;28;20031;-70
2022/06/23 00:05:15;;;;;;;8.52;3.15;;;17.60;99.90;;;;;;5046233;28;20034;-70
2022/06/23 00:07:44;;;;;;;9.13;2.00;;;17.50;99.90;;;;;;5042918;28;20079;-70
2022/06/23 00:10:26;;;;;;;10.63;3.22;;;17.50;99.90;;;;;;5040553;28;20079;-70
2022/06/23 00:12:52;;;;;;;20.30;3.00;;;17.50;99.90;;;;;;5039087;28;20056;-69
2022/06/23 00:15:28;;;;;;;6.80;2.33;;;17.50;99.90;;;;;;5039806;28;20490;-68
2022/06/23 00:18:03;;;;;;;9.35;2.67;;;17.40;99.90;;;;;;5035865;28;20033;-68
2022/06/23 00:20:44;;;;;;;6.60;2.38;;;17.50;99.90;;;;;;5037018;28;20484;-68
2022/06/23 00:23:18;;;;;;;5.82;2.47;;;17.40;99.90;;;;;;5021896;28;20025;-68
2022/06/23 00:26:03;;;;;;;8.13;2.22;;;17.30;99.90;;;;;;5025465;28;20042;-70
2022/06/23 00:28:36;;;;;;;7.22;3.25;;;17.30;99.90;;;;;;5034400;28;20056;-71
2022/06/23 00:31:06;;;;;;;8.63;2.55;;;17.30;99.90;;;;;;5040773;28;20033;-68
2022/06/23 00:33:41;;;;;;;6.53;2.80;;;17.30;99.90;;;;;;5021040;28;20040;-70
2022/06/23 00:36:16;;;;;;;7.03;2.30;;;17.20;99.90;;;;;;5021919;28;20352;-69
2022/06/23 00:38:42;;;;;;;10.10;2.72;;;17.20;99.90;;;;;;5022979;28;20033;-70
2022/06/23 00:41:20;;;;;;;8.82;2.50;;;17.10;99.90;;;;;;5039208;28;20036;-70
2022/06/23 00:43:49;;;;;;;5.97;2.25;;;17.10;99.90;;;;;;5040818;28;20057;-71
2022/06/23 00:46:31;;;;;;;6.05;2.72;;;17.20;99.90;;;;;;5020723;28;20481;-71
2022/06/23 00:49:11;;;;;;;11.02;3.10;;;17.20;99.90;;;;;;5040058;28;20033;-71
2022/06/23 00:51:43;;;;;;;6.20;2.60;;;17.10;99.90;;;;;;5039430;28;20041;-69
2022/06/23 00:54:45;;;;;;;5.13;2.00;;;17.10;99.90;;;;;;5052822;28;20555;-70
2022/06/23 00:57:36;;;;;;;4.93;2.25;;;17.10;99.90;;;;;;5028410;28;20069;-70
2022/06/23 01:00:24;;;;;;;5.35;2.53;;;17.00;99.90;;;;;;5044655;28;20478;-70
2022/06/23 01:03:18;;;;;;;6.72;2.15;;;16.90;99.90;;;;;;5049021;28;20390;-66
2022/06/23 01:06:04;;;;;;;5.55;2.58;;;16.90;99.90;;;;;;5033567;28;20108;-68
2022/06/23 01:09:01;;;;;;;5.45;2.25;;;16.80;99.90;;;;;;5031332;28;20024;-69
2022/06/23 01:11:36;;;;;;;9.85;3.25;;;16.80;99.90;;;;;;5034618;28;20033;-71
2022/06/23 01:14:09;;;;;;;6.20;2.38;;;16.80;99.90;;;;;;5022884;28;20195;-69
2022/06/23 01:16:47;;;;;;;8.68;2.30;;;16.70;99.90;;;;;;5040142;28;20739;-68
2022/06/23 01:19:36;;;;;;;6.68;3.17;;;16.70;99.90;;;;;;5019992;28;20045;-70
2022/06/23 01:22:06;;;;;;;9.98;2.45;;;16.70;99.90;;;;;;5019278;28;20057;-72
2022/06/23 01:24:50;;;;;;;9.23;2.07;;;16.60;99.90;;;;;;5018470;28;20021;-68
2022/06/23 01:27:21;;;;;;;5.60;2.17;;;16.70;99.90;;;;;;5032716;28;20115;-68
2022/06/23 01:29:53;;;;;;;7.30;2.30;;;16.60;99.90;;;;;;5016481;28;20481;-68
2022/06/23 01:32:21;;;;;;;6.95;2.45;;;16.60;99.90;;;;;;5034570;28;20079;-69
2022/06/23 01:35:05;;;;;;;5.38;2.38;;;16.60;99.90;;;;;;5032561;28;20038;-70
2022/06/23 01:37:38;;;;;;;10.50;2.03;;;16.60;99.90;;;;;;5036722;28;20071;-70
2022/06/23 01:40:12;;;;;;;7.10;2.63;;;16.60;99.90;;;;;;5040607;28;20032;-68
2022/06/23 01:42:53;;;;;;;8.15;2.83;;;16.60;99.90;;;;;;5028734;28;20033;-69
2022/06/23 01:45:27;;;;;;;;;;;16.60;99.90;;;;;;5040745;28;20040;-71
2022/06/23 01:48:08;;;;;;;6.43;2.75;;;16.60;99.90;;;;;;5038381;28;19917;-69
2022/06/23 01:50:42;;;;;;;7.60;2.85;;;16.60;99.90;;;;;;5040318;28;20056;-72
2022/06/23 01:53:29;;;;;;;6.95;2.40;;;16.60;99.90;;;;;;5037884;28;20040;-70
2022/06/23 01:56:19;;;;;;;13.50;2.90;;;16.70;99.90;;;;;;5034896;28;20049;-70
2022/06/23 01:58:55;;;;;;;7.35;2.63;;;16.70;99.90;;;;;;5033023;28;20033;-71
2022/06/23 02:01:41;;;;;;;10.52;2.55;;;16.60;99.90;;;;;;5019212;28;20556;-71
2022/06/23 02:04:46;;;;;;;8.57;3.05;;;16.60;99.90;;;;;;5037110;28;20037;-70
2022/06/23 02:07:22;;;;;;;5.72;2.65;;;16.60;99.90;;;;;;4957963;28;20046;-69
2022/06/23 02:09:51;;;;;;;7.43;2.85;;;16.60;99.90;;;;;;5010481;28;20033;-69
2022/06/23 02:12:27;;;;;;;6.50;2.22;;;16.60;99.90;;;;;;5015335;28;20139;-71
2022/06/23 02:15:11;;;;;;;6.90;2.85;;;16.50;99.90;;;;;;5034240;28;20041;-69
2022/06/23 02:17:48;;;;;;;6.80;2.70;;;16.50;99.90;;;;;;5036949;28;20041;-70
2022/06/23 02:20:19;;;;;;;5.63;2.70;;;16.40;99.90;;;;;;5032842;28;20401;-71
2022/06/23 02:22:46;;;;;;;8.98;3.00;;;16.40;99.90;;;;;;5032431;28;20032;-71
2022/06/23 02:25:27;;;;;;;8.48;3.42;;;16.40;99.90;;;;;;5040015;28;20037;-70
2022/06/23 02:28:13;;;;;;;13.43;3.25;;;16.40;99.90;;;;;;5034443;28;20040;-68
2022/06/23 02:31:01;;;;;;;8.75;3.17;;;16.40;99.90;;;;;;5036642;28;20505;-66
2022/06/23 02:33:37;;;;;;;8.00;3.55;;;16.30;99.90;;;;;;5016878;28;20045;-69
2022/06/23 02:36:37;;;;;;;8.48;3.92;;;16.30;99.90;;;;;;5021694;28;20063;-69
2022/06/23 02:39:20;;;;;;;5.07;3.10;;;16.20;99.90;;;;;;5022196;28;20025;-69
2022/06/23 02:41:59;;;;;;;10.77;2.58;;;16.20;99.90;;;;;;5015320;28;20030;-69
2022/06/23 02:44:36;;;;;;;13.88;3.47;;;16.20;99.90;;;;;;5035455;28;20042;-66
2022/06/23 02:47:24;;;;;;;11.68;3.78;;;16.20;99.90;;;;;;5038212;28;20048;-69
2022/06/23 02:50:11;;;;;;;9.68;2.95;;;16.20;99.90;;;;;;5035155;28;20049;-69
2022/06/23 02:52:53;;;;;;;5.13;2.83;;;16.10;99.90;;;;;;5033459;28;20037;-69
2022/06/23 02:55:52;;;;;;;6.57;2.67;;;16.10;99.90;;;;;;5050270;28;20045;-68
2022/06/23 02:58:24;;;;;;;7.65;2.60;;;16.10;99.90;;;;;;5046576;28;20519;-69
2022/06/23 03:00:59;;;;;;;5.90;2.70;;;16.10;99.90;;;;;;5039832;28;20026;-69
2022/06/23 03:03:41;;;;;;;9.23;3.30;;;16.00;99.90;;;;;;5044846;28;20053;-66
2022/06/23 03:06:44;;;;;;;6.50;2.80;;;16.00;99.90;;;;;;5044406;28;20048;-69
2022/06/23 03:09:14;;;;;;;7.20;2.72;;;15.90;99.90;;;;;;5038401;28;20042;-70
2022/06/23 03:12:02;;;;;;;8.65;2.58;;;15.90;99.90;;;;;;5038680;28;20041;-68
2022/06/23 03:14:56;;;;;;;12.05;3.08;;;15.90;99.90;;;;;;5041349;28;20049;-71
2022/06/23 03:17:34;;;;;;;9.70;3.13;;;15.80;99.90;;;;;;5049429;28;20041;-72
2022/06/23 03:20:18;;;;;;;7.68;2.78;;;15.80;99.90;;;;;;5050201;28;20060;-70
2022/06/23 03:23:03;;;;;;;6.45;2.85;;;15.80;99.90;;;;;;5044472;28;20082;-71
2022/06/23 03:25:37;;;;;;;9.10;3.55;;;15.80;99.90;;;;;;5046631;28;20033;-70
2022/06/23 03:28:25;;;;;;;14.20;3.53;;;15.80;99.90;;;;;;5027252;28;20608;-71
2022/06/23 03:30:54;;;;;;;5.88;3.33;;;15.80;99.90;;;;;;5022593;28;22342;-70
2022/06/23 03:33:37;;;;;;;7.78;3.35;;;15.70;99.90;;;;;;5044392;28;20669;-71
2022/06/23 03:36:26;;;;;;;5.90;3.53;;;15.70;99.90;;;;;;5045198;28;20033;-71
2022/06/23 03:41:55;;;;;;;7.38;2.70;;;15.70;99.90;;;;;;5039540;28;20034;-70
2022/06/23 03:44:31;;;;;;;9.05;2.95;;;15.70;99.90;;;;;;5026164;28;20489;-70
2022/06/23 03:47:18;;;;;;;7.03;3.30;;;15.70;99.90;;;;;;5026055;28;20033;-70
2022/06/23 03:49:57;;;;;;;6.10;2.63;;;15.70;99.90;;;;;;5040914;28;20037;-70
2022/06/23 03:52:45;;;;;;;12.35;3.22;;;15.70;99.90;;;;;;5025953;28;20131;-70
2022/06/23 03:55:13;;;;;;;6.63;3.15;;;15.70;99.90;;;;;;5031415;28;20045;-69
2022/06/23 03:57:53;;;;;;;7.30;3.00;;;15.70;99.90;;;;;;5038177;28;20485;-71
2022/06/23 04:00:22;;;;;;;7.70;2.85;;;15.80;99.90;;;;;;5022480;28;20037;-68
2022/06/23 04:03:00;;;;;;;8.60;3.08;;;15.80;99.90;;;;;;5042653;28;20037;-69
2022/06/23 04:06:00;;;;;;;9.40;3.45;;;15.80;99.90;;;;;;5041111;28;20045;-70
2022/06/23 04:08:31;;;;;;;11.15;4.05;;;15.80;99.90;;;;;;5016867;28;20033;-71
2022/06/23 04:11:43;;;;;;;11.02;4.32;;;15.80;99.90;;;;;;5022500;28;20132;-69
2022/06/23 04:13:50;;;;;;;7.55;3.00;;;15.80;99.90;;;;;;5036466;28;20065;-71
2022/06/23 04:16:15;;;;;;;7.32;3.22;;;15.80;99.90;;;;;;5041072;28;20025;-70
2022/06/23 04:18:46;;;;;;;8.02;3.17;;;15.90;99.90;;;;;;5038580;28;20041;-69
2022/06/23 04:21:19;;;;;;;13.25;3.45;;;15.90;99.90;;;;;;5042104;28;20412;-68
2022/06/23 04:23:54;;;;;;;4.95;2.78;;;15.90;99.90;;;;;;5038840;28;20057;-72
2022/06/23 04:26:32;;;;;;;5.82;2.90;;;15.90;99.90;;;;;;5023150;28;20033;-71
2022/06/23 04:29:07;;;;;;;8.95;2.75;;;16.00;99.90;;;;;;5040874;28;20037;-68
2022/06/23 04:31:35;;;;;;;16.65;3.00;;;16.00;99.90;;;;;;5036756;28;20107;-69
2022/06/23 04:34:02;;;;;;;12.07;4.05;;;16.00;99.90;;;;;;5036006;28;20417;-71
2022/06/23 04:36:41;;;;;;;6.07;3.03;;;16.10;99.90;;;;;;5013528;28;20116;-71
2022/06/23 04:39:34;;;;;;;11.52;3.28;;;16.10;99.90;;;;;;5012915;28;20060;-70
2022/06/23 04:42:10;;;;;;;12.75;3.22;;;16.20;99.90;;;;;;5037844;28;20037;-71
2022/06/23 04:44:43;;;;;;;7.50;2.95;;;16.20;99.90;;;;;;5024549;28;20045;-69
2022/06/23 04:47:17;;;;;;;9.82;2.67;;;16.20;99.90;;;;;;5046271;28;20412;-71
2022/06/23 04:49:48;;;;;;;6.88;2.67;;;16.20;99.90;;;;;;5024347;28;20032;-69
2022/06/23 04:52:32;;;;;;;7.97;3.72;;;16.30;99.90;;;;;;5046394;28;20057;-70
2022/06/23 04:55:07;;;;;;;5.65;2.95;;;16.30;99.90;;;;;;5038948;28;20128;-69
2022/06/23 04:57:59;;;;;;;7.38;2.95;;;16.30;99.90;;;;;;5041951;28;20033;-71
2022/06/23 05:00:37;;;;;;;9.93;3.22;;;16.40;99.90;;;;;;5031246;28;20037;-70
2022/06/23 05:03:12;;;;;;;6.50;2.88;;;16.50;99.90;;;;;;5032936;28;20183;-69
2022/06/23 05:05:38;;;;;;;5.32;2.50;;;16.50;99.90;;;;;;5027804;28;20136;-71
2022/06/23 05:08:23;;;;;;;5.80;2.88;;;16.50;99.90;;;;;;5033365;28;20163;-70
2022/06/23 05:11:09;;;;;;;9.60;3.13;;;16.50;99.90;;;;;;5030580;28;20029;-68
2022/06/23 05:13:58;;;;;;;6.82;2.63;;;16.70;99.90;;;;;;5024973;28;20057;-71
2022/06/23 05:16:31;;;;;;;7.78;3.30;;;16.70;99.90;;;;;;5030677;28;20095;-71
2022/06/23 05:19:00;;;;;;;9.82;3.63;;;16.90;99.90;;;;;;5015257;28;20034;-71
2022/06/23 05:21:36;;;;;;;8.57;2.60;;;16.90;99.90;;;;;;5034256;28;20034;-71
2022/06/23 05:24:08;;;;;;;11.95;3.00;;;17.10;99.90;;;;;;5029794;28;20773;-70
2022/06/23 05:26:45;;;;;;;6.30;2.60;;;17.20;99.90;;;;;;5019696;28;20037;-70
2022/06/23 05:29:40;;;;;;;6.97;2.65;;;17.20;99.90;;;;;;5018654;28;20037;-71
2022/06/23 05:32:19;;;;;;;6.88;3.25;;;17.30;99.90;;;;;;5019867;28;20068;-71
2022/06/23 05:34:56;;;;;;;7.53;3.33;;;17.50;99.90;;;;;;5029614;28;20037;-70
2022/06/23 05:37:26;;;;;;;5.10;2.05;;;17.50;99.90;;;;;;5031267;28;20029;-71
2022/06/23 05:40:11;;;;;;;4.80;2.35;;;17.60;99.90;;;;;;5034568;28;20459;-71
2022/06/23 05:42:42;;;;;;;11.55;2.80;;;17.80;99.90;;;;;;5009349;28;20034;-71
2022/06/23 05:45:38;;;;;;;4.97;2.65;;;18.00;99.90;;;;;;5018157;28;20037;-70
2022/06/23 05:48:07;;;;;;;6.82;2.55;;;18.30;99.90;;;;;;5028051;28;20138;-70
2022/06/23 05:50:59;;;;;;;5.53;2.30;;;18.50;99.90;;;;;;5012515;28;20065;-71
2022/06/23 05:53:34;;;;;;;5.70;2.63;;;18.90;99.90;;;;;;5032911;28;20048;-72
2022/06/23 05:56:05;;;;;;;6.60;2.65;;;19.30;99.90;;;;;;5029875;28;20084;-68
2022/06/23 05:58:35;;;;;;;;;;;19.80;99.90;;;;;;5031970;28;20032;-70
2022/06/23 06:01:16;;;;;;;7.68;2.17;;;20.20;99.90;;;;;;5030571;28;20339;-70
2022/06/23 06:03:50;;;;;;;5.57;2.42;;;20.70;99.90;;;;;;5028340;28;20021;-70
2022/06/23 06:06:16;;;;;;;5.93;2.30;;;21.00;99.90;;;;;;5011302;28;20425;-71
2022/06/23 06:11:33;;;;;;;5.88;1.98;;;21.30;99.90;;;;;;5030067;28;20839;-71
2022/06/23 06:14:00;;;;;;;3.47;2.30;;;21.30;99.90;;;;;;5030141;28;20033;-68
2022/06/23 06:16:26;;;;;;;8.27;2.65;;;21.40;99.90;;;;;;5029302;28;20529;-70
2022/06/23 06:18:53;;;;;;;5.15;2.50;;;21.40;99.90;;;;;;5030030;28;20045;-72
2022/06/23 06:21:21;;;;;;;5.35;1.88;;;21.40;99.90;;;;;;5033093;28;20041;-71
2022/06/23 06:23:54;;;;;;;9.20;2.30;;;21.40;99.90;;;;;;5031230;28;20038;-67
2022/06/23 06:26:27;;;;;;;11.13;2.67;;;21.50;99.90;;;;;;5026756;28;20037;-68
2022/06/23 06:28:58;;;;;;;4.68;1.98;;;21.40;99.90;;;;;;5012424;28;20033;-69
2022/06/23 06:31:30;;;;;;;8.98;2.00;;;21.60;99.90;;;;;;5034138;28;20081;-69
2022/06/23 06:34:21;;;;;;;5.30;2.92;;;21.60;99.90;;;;;;5010685;28;20482;-68
2022/06/23 06:36:50;;;;;;;6.03;2.38;;;21.70;99.90;;;;;;5030001;28;20033;-69
2022/06/23 06:39:21;;;;;;;4.63;2.30;;;21.70;99.90;;;;;;5031087;28;20650;-66
2022/06/23 06:41:52;;;;;;;6.10;2.10;;;21.90;99.90;;;;;;5029056;28;20147;-67
2022/06/23 06:44:18;;;;;;;8.18;2.42;;;22.20;99.90;;;;;;5029161;28;20474;-68
2022/06/23 06:46:44;;;;;;;4.90;1.98;;;22.60;99.80;;;;;;5028051;28;20125;-67
2022/06/23 06:49:20;;;;;;;4.25;2.13;;;23.00;99.10;;;;;;5029873;28;20095;-69
2022/06/23 06:51:47;;;;;;;7.40;1.95;;;23.20;98.50;;;;;;5029201;28;20042;-69
2022/06/23 06:54:23;;;;;;;6.95;2.20;;;23.20;98.40;;;;;;5011200;28;20037;-68
2022/06/23 06:56:53;;;;;;;6.68;1.88;;;23.20;98.10;;;;;;5030309;28;20049;-68
2022/06/23 06:59:38;;;;;;;6.07;1.98;;;23.40;97.90;;;;;;5027182;28;20044;-69
2022/06/23 07:02:25;;;;;;;4.10;1.58;;;23.60;98.60;;;;;;5025733;28;20033;-68
2022/06/23 07:05:08;;;;;;;3.80;1.90;;;23.90;97.50;;;;;;5030681;28;20030;-69
2022/06/23 07:07:40;;;;;;;7.72;2.55;;;24.30;97.60;;;;;;5029406;28;20040;-68
2022/06/23 07:10:13;;;;;;;3.30;1.50;;;24.70;96.30;;;;;;5028570;28;20037;-69
2022/06/23 07:13:00;;;;;;;7.20;2.00;;;25.00;97.10;;;;;;5027417;28;20041;-72
2022/06/23 07:15:31;;;;;;;6.38;2.15;;;25.60;95.70;;;;;;5030473;28;20033;-70
2022/06/23 07:18:07;;;;;;;8.65;2.25;;;26.20;94.50;;;;;;5029573;28;20057;-70
2022/06/23 07:20:50;;;;;;;4.60;1.65;;;26.80;94.00;;;;;;5026885;28;20097;-70
2022/06/23 07:23:32;;;;;;;5.47;2.38;;;27.50;93.30;;;;;;5027398;28;20876;-71
2022/06/23 07:26:22;;;;;;;9.00;2.30;;;28.50;91.00;;;;;;5024203;28;20034;-71
2022/06/23 07:28:55;;;;;;;4.10;1.85;;;29.30;89.00;;;;;;5012556;28;20026;-70
2022/06/23 07:31:27;;;;;;;11.80;2.22;;;30.10;87.70;;;;;;5032045;28;20090;-72
2022/06/23 07:34:04;;;;;;;7.85;2.45;;;30.80;82.60;;;;;;5036692;28;20034;-69
2022/06/23 07:36:42;;;;;;;7.97;2.40;;;31.60;79.10;;;;;;5018775;28;20043;-68
2022/06/23 07:39:32;;;;;;;13.93;2.50;;;31.80;77.00;;;;;;5050583;28;20030;-69
2022/06/23 07:42:03;;;;;;;6.57;2.22;;;32.40;75.60;;;;;;5026872;28;20089;-70
2022/06/23 07:44:36;;;;;;;6.32;2.38;;;32.30;74.80;;;;;;5034531;28;20049;-68
2022/06/23 07:47:02;;;;;;;11.27;3.13;;;32.60;74.40;;;;;;5036996;28;20033;-68
2022/06/23 07:49:29;;;;;;;8.77;2.75;;;33.20;71.40;;;;;;5034929;28;20048;-68
2022/06/23 07:51:56;;;;;;;4.88;2.50;;;33.30;71.50;;;;;;5015478;28;20036;-69
2022/06/23 07:54:23;;;;;;;6.25;3.03;;;33.60;70.00;;;;;;5030866;28;20518;-70
2022/06/23 07:56:50;;;;;;;5.63;2.45;;;33.40;67.70;;;;;;5035261;28;20038;-69
2022/06/23 07:59:19;;;;;;;4.30;2.17;;;33.20;68.50;;;;;;5034729;28;20045;-69
2022/06/23 08:02:04;;;;;;;4.53;2.22;;;33.50;70.20;;;;;;5031711;28;20776;-68
2022/06/23 08:04:45;;;;;;;10.82;2.65;;;33.70;68.70;;;;;;5016797;28;20048;-68
2022/06/23 08:07:12;;;;;;;4.28;2.65;;;33.80;66.80;;;;;;5036507;28;20037;-70
2022/06/23 08:09:51;;;;;;;4.82;2.42;;;33.30;67.50;;;;;;5033442;28;20075;-71
2022/06/23 08:18:31;;;;;;;3.88;2.60;;;33.20;67.90;;;;;;5028320;28;20115;-68
2022/06/23 08:21:24;;;;;;;4.70;2.70;;;33.00;67.80;;;;;;5017732;28;20025;-69
2022/06/23 08:23:53;;;;;;;10.75;2.75;;;32.60;65.50;;;;;;5016262;28;20501;-69
2022/06/23 08:26:21;;;;;;;5.45;2.65;;;32.00;67.40;;;;;;5030065;28;20879;-70
2022/06/23 08:28:48;;;;;;;4.78;2.17;;;31.40;67.80;;;;;;5014061;28;20237;-70
2022/06/23 08:31:14;;;;;;;8.68;2.97;;;30.60;71.80;;;;;;5040471;28;20041;-69
2022/06/23 08:33:40;;;;;;;5.93;2.42;;;30.20;71.30;;;;;;5012369;28;20036;-70
2022/06/23 08:36:17;;;;;;;9.30;2.33;;;29.70;71.80;;;;;;5031810;28;20517;-68
2022/06/23 08:39:05;;;;;;;4.57;1.88;;;29.50;74.00;;;;;;5014819;28;20114;-69
2022/06/23 08:42:00;;;;;;;6.60;1.80;;;29.30;74.30;;;;;;5011781;28;20071;-68
2022/06/23 08:44:52;;;;;;;5.57;1.90;;;29.00;75.60;;;;;;5007731;28;20595;-70
2022/06/23 08:47:39;;;;;;;5.65;2.50;;;29.00;78.40;;;;;;5020624;28;20502;-69
2022/06/23 08:50:21;;;;;;;7.88;2.00;;;28.90;74.70;;;;;;5012712;28;20611;-67
2022/06/23 08:52:54;;;;;;;7.47;2.20;;;28.80;79.70;;;;;;5017857;28;20045;-67
2022/06/23 08:55:33;;;;;;;10.98;2.92;;;28.70;76.90;;;;;;5037447;28;20401;-69
2022/06/23 08:58:14;;;;;;;11.48;2.47;;;28.70;75.50;;;;;;5030855;28;20493;-67
2022/06/23 09:01:04;;;;;;;11.98;3.10;;;28.70;76.50;;;;;;5031546;28;20121;-70
2022/06/23 09:03:55;;;;;;;6.28;2.83;;;28.60;77.90;;;;;;5019664;28;20029;-69
2022/06/23 09:06:29;;;;;;;5.07;2.72;;;28.60;77.70;;;;;;5031574;28;20627;-69
2022/06/23 09:09:21;;;;;;;5.80;2.63;;;28.50;79.40;;;;;;5030136;28;20557;-69
2022/06/23 09:12:20;;;;;;;8.48;2.55;;;28.50;79.80;;;;;;5029553;28;20045;-68
2022/06/23 09:15:20;;;;;;;8.07;2.78;;;28.70;79.90;;;;;;5030502;28;20037;-67
2022/06/23 09:17:45;;;;;;;7.93;3.03;;;28.70;82.00;;;;;;5032917;28;20036;-70
2022/06/23 09:20:30;;;;;;;4.63;2.55;;;28.70;82.70;;;;;;5011437;28;20034;-70
2022/06/23 09:23:33;;;;;;;9.40;3.25;;;28.80;83.20;;;;;;5029603;28;20034;-70
2022/06/23 09:26:32;;;;;;;10.18;3.20;;;28.80;81.40;;;;;;5029198;28;20041;-69
2022/06/23 09:29:09;;;;;;;10.38;3.13;;;28.80;83.70;;;;;;5030405;28;20037;-69
2022/06/23 09:31:49;;;;;;;7.40;2.70;;;28.90;84.10;;;;;;5032944;28;20030;-70
2022/06/23 09:34:37;;;;;;;8.07;3.22;;;28.90;84.00;;;;;;5012112;28;20037;-69
2022/06/23 09:37:14;;;;;;;6.60;3.70;;;28.80;82.20;;;;;;5030874;28;20031;-68
2022/06/23 09:39:58;;;;;;;12.10;3.38;;;28.90;82.00;;;;;;5028002;28;20601;-67
2022/06/23 09:42:53;;;;;;;7.82;2.90;;;29.10;83.50;;;;;;5027297;28;20061;-69
2022/06/23 09:45:37;;;;;;;10.50;3.90;;;29.10;82.40;;;;;;4957891;28;20118;-67
2022/06/23 09:48:24;;;;;;;8.68;2.67;;;29.10;84.50;;;;;;5027814;28;20033;-68
2022/06/23 09:51:01;;;;;;;7.78;3.13;;;29.00;86.20;;;;;;5011091;28;20117;-69
2022/06/23 09:53:50;;;;;;;11.48;3.20;;;29.00;84.20;;;;;;5030306;28;20075;-70
2022/06/23 09:56:39;;;;;;;11.30;4.07;;;29.00;87.30;;;;;;5033637;28;20029;-68
2022/06/23 09:59:17;;;;;;;8.95;3.35;;;29.10;86.30;;;;;;5034681;28;20492;-70
2022/06/23 10:02:22;;;;;;;8.93;3.38;;;29.30;86.30;;;;;;5028755;28;20374;-69
2022/06/23 10:05:10;;;;;;;12.55;4.60;;;29.30;84.20;;;;;;5009919;28;20040;-67
2022/06/23 10:07:38;;;;;;;10.07;3.50;;;29.30;83.40;;;;;;5030147;28;20128;-70
2022/06/23 10:10:35;;;;;;;6.03;3.25;;;29.20;84.10;;;;;;5029673;28;20034;-68
2022/06/23 10:13:18;;;;;;;6.35;3.67;;;29.20;86.00;;;;;;5028914;28;20082;-69
2022/06/23 10:16:06;;;;;;;9.90;4.30;;;29.10;84.00;;;;;;5027204;28;20037;-70
2022/06/23 10:18:47;;;;;;;5.07;3.00;;;29.20;84.30;;;;;;5013691;28;20040;-71
2022/06/23 10:21:45;;;;;;;10.20;4.10;;;29.20;86.10;;;;;;5030995;28;20037;-69
2022/06/23 10:24:35;;;;;;;12.95;3.00;;;29.20;84.00;;;;;;5010168;28;20703;-68
2022/06/23 10:27:17;;;;;;;10.60;4.07;;;29.40;85.00;;;;;;5012728;28;20118;-71
2022/06/23 10:30:00;;;;;;;13.20;4.32;;;29.30;83.10;;;;;;5012836;28;20041;-69
2022/06/23 10:33:07;;;;;;;6.38;2.80;;;29.30;83.80;;;;;;5030398;28;20493;-71
2022/06/23 10:35:51;;;;;;;6.47;2.72;;;29.40;84.10;;;;;;5026756;28;20038;-70
2022/06/23 10:38:25;;;;;;;10.77;3.15;;;29.50;85.70;;;;;;5025740;28;20057;-71
2022/06/23 10:41:14;;;;;;;8.13;2.05;;;29.60;83.60;;;;;;5026431;28;20068;-71
2022/06/23 10:43:45;;;;;;;5.97;2.90;;;29.60;85.10;;;;;;5010193;28;20080;-71
2022/06/23 10:46:18;;;;;;;9.93;2.63;;;29.70;83.40;;;;;;5030092;28;20025;-69
2022/06/23 10:49:04;;;;;;;5.97;2.97;;;29.80;84.10;;;;;;5026747;28;20036;-71
2022/06/23 10:52:23;;;;;;;7.53;3.50;;;29.90;84.70;;;;;;5001911;28;20034;-69
2022/06/23 10:55:22;;;;;;;7.90;3.00;;;29.90;83.50;;;;;;4975184;28;20114;-69
2022/06/23 10:58:06;;;;;;;6.70;2.83;;;30.00;81.90;;;;;;5025696;28;20387;-68
2022/06/23 11:00:55;;;;;;;8.80;2.30;;;30.00;83.70;;;;;;5029588;28;20509;-68
2022/06/23 11:03:27;;;;;;;7.47;2.67;;;30.10;85.20;;;;;;5029121;28;20037;-69
2022/06/23 11:06:05;;;;;;;10.50;2.95;;;30.20;81.20;;;;;;5033668;28;20041;-70
2022/06/23 11:08:36;;;;;;;10.75;3.33;;;30.00;80.70;;;;;;5037673;28;20033;-67
2022/06/23 11:11:27;;;;;;;10.35;3.30;;;30.00;80.90;;;;;;5040288;28;20056;-69
2022/06/23 11:14:11;;;;;;;9.45;2.45;;;29.90;82.10;;;;;;5038860;28;20047;-70
2022/06/23 11:16:37;;;;;;;6.72;2.72;;;30.10;82.20;;;;;;5041944;28;20483;-69
2022/06/23 11:19:39;;;;;;;6.68;2.85;;;30.10;81.90;;;;;;5041466;28;20083;-69
2022/06/23 11:22:34;;;;;;;7.55;3.08;;;30.10;80.60;;;;;;5034706;28;20540;-68
2022/06/23 11:25:30;;;;;;;9.00;3.05;;;30.00;81.10;;;;;;5035312;28;20107;-69
2022/06/23 11:28:14;;;;;;;5.65;1.85;;;30.00;82.60;;;;;;5027995;28;20136;-70
2022/06/23 11:30:49;;;;;;;7.78;2.45;;;30.10;82.20;;;;;;5035026;28;20034;-67
2022/06/23 11:33:45;;;;;;;8.18;2.45;;;29.90;82.10;;;;;;5016083;28;20044;-68
2022/06/23 11:36:36;;;;;;;7.05;2.28;;;29.80;81.10;;;;;;5035051;28;20519;-68
2022/06/23 11:39:02;;;;;;;13.77;3.00;;;30.00;82.80;;;;;;5003542;28;20634;-68
2022/06/23 11:41:48;;;;;;;5.85;2.67;;;30.00;82.50;;;;;;5015053;28;20041;-68
2022/06/23 11:44:53;;;;;;;16.08;2.80;;;30.00;82.70;;;;;;5034448;28;20053;-68
2022/06/23 11:47:36;;;;;;;9.32;2.47;;;30.30;82.40;;;;;;5030604;28;20065;-67
2022/06/23 11:50:16;;;;;;;9.75;2.92;;;30.50;82.60;;;;;;5026980;28;20033;-69
2022/06/23 11:53:03;;;;;;;5.20;2.85;;;30.30;82.70;;;;;;5031447;28;20096;-70
2022/06/23 11:55:34;;;;;;;9.68;1.90;;;30.00;81.70;;;;;;5031862;28;20084;-70
2022/06/23 11:58:29;;;;;;;8.25;3.05;;;29.80;82.90;;;;;;5031333;28;20075;-68
2022/06/23 12:01:07;;;;;;;9.43;2.92;;;29.80;82.40;;;;;;5013159;28;20033;-70
2022/06/23 12:04:05;;;;;;;13.82;2.40;;;29.90;82.00;;;;;;5030361;28;20037;-69
2022/06/23 12:06:46;;;;;;;8.10;2.83;;;30.00;84.30;;;;;;5034836;28;20091;-68
2022/06/23 12:09:40;;;;;;;7.18;1.63;;;30.00;82.90;;;;;;5035053;28;20112;-70
2022/06/23 12:12:06;;;;;;;11.73;2.70;;;30.00;82.90;;;;;;5031471;28;20116;-68
2022/06/23 12:14:33;;;;;;;10.65;1.92;;;30.00;83.40;;;;;;5015338;28;20116;-67
2022/06/23 12:17:20;;;;;;;6.60;1.75;;;30.00;83.20;;;;;;5034066;28;20036;-70
2022/06/23 12:20:19;;;;;;;10.02;1.58;;;30.00;82.60;;;;;;5016550;28;20417;-71
2022/06/23 12:23:02;;;;;;;8.57;2.15;;;30.10;83.90;;;;;;5009936;28;20034;-70
2022/06/23 12:26:14;;;;;;;8.35;2.30;;;30.20;83.50;;;;;;5030454;28;20037;-69
2022/06/23 12:29:12;;;;;;;9.63;2.28;;;30.30;82.70;;;;;;5001535;28;20049;-69
2022/06/23 12:31:45;;;;;;;9.43;2.15;;;30.10;81.50;;;;;;5031312;28;20031;-69
2022/06/23 12:34:29;;;;;;;7.60;2.13;;;30.00;82.90;;;;;;5034176;28;20029;-70
2022/06/23 12:37:13;;;;;;;5.57;2.15;;;30.00;81.00;;;;;;5030564;28;20034;-70
2022/06/23 12:40:04;;;;;;;7.20;2.17;;;30.10;82.10;;;;;;5026708;28;20053;-69
2022/06/23 12:42:57;;;;;;;4.65;1.55;;;30.20;81.80;;;;;;5031677;28;20140;-69
2022/06/23 12:45:49;;;;;;;5.82;1.52;;;30.20;82.70;;;;;;5012842;28;20068;-69
2022/06/23 12:49:03;;;;;;;8.10;2.17;;;30.10;81.80;;;;;;5013652;28;20041;-67
2022/06/23 12:52:00;;;;;;;4.00;1.50;;;30.00;81.80;;;;;;5019957;28;20786;-70
2022/06/23 12:54:38;;;;;;;7.85;1.65;;;30.10;83.80;;;;;;5017862;28;20037;-70
2022/06/23 12:57:48;;;;;;;6.47;1.90;;;30.00;83.30;;;;;;5033041;28;20685;-69
2022/06/23 13:00:39;;;;;;;3.85;1.55;;;29.80;82.60;;;;;;5008709;28;20401;-68
2022/06/23 13:03:50;;;;;;;6.82;1.70;;;29.60;83.10;;;;;;5030902;28;20021;-69
2022/06/23 13:06:27;;;;;;;5.25;1.67;;;29.60;83.30;;;;;;4983863;28;20437;-70
2022/06/23 13:09:07;;;;;;;7.65;2.13;;;29.70;83.50;;;;;;5020912;28;20166;-68
2022/06/23 13:11:54;;;;;;;7.95;2.40;;;29.80;84.60;;;;;;5035466;28;20032;-68
2022/06/23 13:14:24;;;;;;;5.13;1.60;;;30.00;84.70;;;;;;5028674;28;20044;-68
2022/06/23 13:16:58;;;;;;;13.38;2.30;;;30.30;84.80;;;;;;5039574;28;20032;-68
2022/06/23 13:19:45;;;;;;;6.43;1.50;;;30.50;82.90;;;;;;5015124;28;20502;-68
2022/06/23 13:22:11;;;;;;;7.30;2.00;;;30.70;83.50;;;;;;5027819;28;20040;-67
2022/06/23 13:24:43;;;;;;;3.65;1.50;;;30.80;84.10;;;;;;5012123;28;20475;-69
2022/06/23 13:27:19;;;;;;;5.97;2.25;;;30.70;82.00;;;;;;5035786;28;20462;-69
2022/06/23 13:29:51;;;;;;;7.10;1.98;;;30.60;81.00;;;;;;5030649;28;20034;-70
2022/06/23 13:32:38;;;;;;;13.40;2.00;;;30.60;82.00;;;;;;5010836;28;20553;-70
2022/06/23 13:35:13;;;;;;;5.32;2.17;;;30.60;80.90;;;;;;5031005;28;20036;-69
2022/06/23 13:37:50;;;;;;;7.45;1.92;;;30.60;82.60;;;;;;5027458;28;20714;-69
2022/06/23 13:40:21;;;;;;;6.10;2.03;;;30.70;82.30;;;;;;5034682;28;20033;-67
2022/06/23 13:43:02;;;;;;;5.82;1.40;;;30.60;81.70;;;;;;5011736;28;20641;-69
2022/06/23 13:45:48;;;;;;;5.28;1.30;;;30.60;80.50;;;;;;5034588;28;20946;-69
2022/06/23 13:48:33;;;;;;;4.43;1.17;;;30.30;79.70;;;;;;5034707;28;20064;-69
2022/06/23 13:51:07;;;;;;;15.50;1.50;;;30.30;80.50;;;;;;5030847;28;20029;-70
2022/06/23 13:53:38;;;;;;;3.38;1.38;;;30.40;81.40;;;;;;5028831;28;20509;-68
2022/06/23 13:56:22;;;;;;;6.70;2.50;;;30.60;79.50;;;;;;5027918;28;20029;-70
2022/06/23 13:59:04;;;;;;;13.40;2.67;;;30.70;79.00;;;;;;5008798;28;20534;-69
2022/06/23 14:01:48;;;;;;;10.15;1.65;;;30.80;81.00;;;;;;5028988;28;20033;-70
2022/06/23 14:04:36;;;;;;;6.70;1.40;;;30.80;79.90;;;;;;5011725;28;20041;-70